Time;durP1;ratioP1;P1;durP2;ratioP2;P2;SDS_P1;SDS_P2;PMS_P1;PMS_P2;Temp;Humidity;BMP_temperature;BMP_pressure;BME280_temperature;BME280_humidity;BME280_pressure;Samples;Min_cycle;Max_cycle;Signal;HPM_P1;HPM_P2
2023/07/24 00:01:02;;;;;;;0.00;0.00;;;;;;;14.96;nan;98998.22;4905016;29;20033;-76
2023/07/24 00:03:27;;;;;;;0.00;0.00;;;;;;;;;;4910399;29;20059;-77
2023/07/24 00:05:52;;;;;;;0.00;0.00;;;;;;;15.93;nan;99187.91;4910667;29;20033;-76
2023/07/24 00:08:18;;;;;;;0.00;0.00;;;;;;;15.63;nan;99127.22;4920718;29;20275;-78
2023/07/24 00:10:43;;;;;;;0.00;0.00;;;;;;;;;;4880918;29;20035;-77
2023/07/24 00:13:08;;;;;;;0.00;0.00;;;;;;;15.80;nan;99184.22;4921873;29;20025;-75
2023/07/24 00:15:34;;;;;;;0.00;0.00;;;;;;;15.31;nan;99085.41;4912318;29;20036;-76
2023/07/24 00:17:59;;;;;;;0.00;0.00;;;;;;;15.80;nan;99175.94;4895456;29;20059;-76
2023/07/24 00:20:25;;;;;;;0.00;0.00;;;;;;;15.80;nan;99173.19;4905739;29;20028;-75
2023/07/24 00:22:51;;;;;;;0.00;0.00;;;;;;;15.78;nan;99170.78;4887186;29;20036;-75
2023/07/24 00:25:16;;;;;;;0.00;0.00;;;;;;;15.76;nan;99155.69;4916130;29;20103;-76
2023/07/24 00:27:42;;;;;;;0.00;0.00;;;;;;;15.76;nan;99162.00;4916463;29;20064;-74
2023/07/24 00:30:08;;;;;;;0.00;0.00;;;;;;;15.75;nan;99165.91;4909725;29;20040;-75
2023/07/24 00:32:33;;;;;;;0.00;0.00;;;;;;;15.71;nan;99151.16;4894548;29;20024;-75
2023/07/24 00:34:59;;;;;;;0.00;0.00;;;;;;;15.69;nan;99157.00;4908217;29;20103;-75
2023/07/24 00:37:24;;;;;;;0.00;0.00;;;;;;;15.72;nan;99155.53;4907795;29;20624;-76
2023/07/24 00:39:50;;;;;;;0.00;0.00;;;;;;;15.71;nan;99157.50;4912752;29;20113;-77
2023/07/24 00:42:15;;;;;;;0.00;0.00;;;;;;;;;;4915287;29;20051;-76
2023/07/24 00:44:40;;;;;;;0.00;0.00;;;;;;;15.72;nan;99163.81;4933007;29;20478;-76
2023/07/24 00:47:06;;;;;;;0.00;0.00;;;;;;;15.72;nan;99150.03;4926204;29;20034;-78
2023/07/24 00:49:32;;;;;;;0.00;0.00;;;;;;;15.67;nan;99141.97;4924893;28;20031;-77
2023/07/24 00:51:57;;;;;;;0.00;0.00;;;;;;;15.71;nan;99145.66;4946479;28;20074;-77
2023/07/24 00:54:23;;;;;;;0.00;0.00;;;;;;;15.72;nan;99141.75;4927794;29;20385;-79
2023/07/24 00:56:49;;;;;;;0.00;0.00;;;;;;;15.74;nan;99147.75;4937063;28;20036;-77
2023/07/24 00:59:15;;;;;;;0.00;0.00;;;;;;;15.76;nan;99136.41;4927268;29;20517;-75
2023/07/24 01:01:42;;;;;;;0.00;0.00;;;;;;;15.76;nan;99123.44;4929456;29;20024;-76
2023/07/24 01:04:08;;;;;;;0.00;0.00;;;;;;;15.79;nan;99153.09;4956524;29;20027;-74
2023/07/24 01:06:33;;;;;;;0.00;0.00;;;;;;;15.82;nan;99127.63;4925960;29;20027;-74
2023/07/24 01:08:59;;;;;;;0.00;0.00;;;;;;;15.85;nan;99146.25;4919984;29;20643;-75
2023/07/24 01:11:28;;;;;;;0.00;0.00;;;;;;;15.85;nan;99146.25;4925504;29;20106;-75
2023/07/24 01:14:17;;;;;;;0.00;0.00;;;;;;;15.84;nan;99141.91;4946822;29;20066;-74
2023/07/24 01:16:43;;;;;;;0.00;0.00;;;;;;;15.85;nan;99143.50;4926194;29;20211;-74
2023/07/24 01:19:36;;;;;;;0.00;0.00;;;;;;;15.87;nan;99156.94;4945322;29;20126;-74
2023/07/24 01:22:14;;;;;;;0.00;0.00;;;;;;;15.85;nan;99138.00;4945299;29;20028;-74
2023/07/24 01:25:07;;;;;;;0.00;0.00;;;;;;;15.88;nan;99148.34;4925699;29;20448;-73
2023/07/24 01:27:32;;;;;;;0.00;0.00;;;;;;;15.85;nan;99124.22;4928993;28;20031;-74
2023/07/24 01:29:58;;;;;;;0.00;0.00;;;;;;;15.82;nan;99129.59;4943385;28;20050;-74
2023/07/24 01:32:24;;;;;;;0.00;0.00;;;;;;;15.79;nan;99133.00;4940632;29;20127;-75
2023/07/24 01:34:50;;;;;;;0.00;0.00;;;;;;;;;;4947901;29;20585;-76
2023/07/24 01:37:16;;;;;;;0.00;0.00;;;;;;;;;;4940787;29;20023;-75
2023/07/24 01:39:43;;;;;;;0.00;0.00;;;;;;;15.71;nan;99129.13;4937802;29;20023;-77
2023/07/24 01:42:09;;;;;;;0.00;0.00;;;;;;;15.67;nan;99097.88;4940299;29;20050;-74
2023/07/24 01:44:34;;;;;;;0.00;0.00;;;;;;;15.64;nan;99126.91;4932367;29;20031;-75
2023/07/24 01:47:00;;;;;;;0.00;0.00;;;;;;;;;;4941148;28;20050;-75
2023/07/24 01:49:25;;;;;;;0.00;0.00;;;;;;;15.62;nan;99122.84;4944198;29;20529;-76
2023/07/24 01:51:50;;;;;;;0.00;0.00;;;;;;;15.59;nan;99080.22;4938546;28;20677;-77
2023/07/24 01:54:16;;;;;;;0.00;0.00;;;;;;;15.59;nan;99101.47;4937943;29;20039;-76
2023/07/24 01:56:41;;;;;;;0.00;0.00;;;;;;;;;;4921546;29;20059;-76
2023/07/24 01:59:06;;;;;;;0.00;0.00;;;;;;;15.57;nan;99103.75;4938713;29;20031;-75
2023/07/24 02:01:32;;;;;;;0.00;0.00;;;;;;;15.58;nan;99088.81;4920339;29;20115;-75
2023/07/24 02:03:57;;;;;;;0.00;0.00;;;;;;;15.57;nan;99112.81;4930941;29;20035;-74
2023/07/24 02:06:22;;;;;;;0.00;0.00;;;;;;;;;;4916388;29;20031;-74
2023/07/24 02:08:48;;;;;;;0.00;0.00;;;;;;;15.56;nan;99107.66;4945613;28;20038;-74
2023/07/24 02:11:17;;;;;;;0.00;0.00;;;;;;;15.51;nan;99101.19;4932386;29;20047;-74
2023/07/24 02:13:44;;;;;;;0.00;0.00;;;;;;;15.49;nan;99092.44;4949815;29;20114;-74
2023/07/24 02:16:10;;;;;;;0.00;0.00;;;;;;;;;;4927635;29;21355;-74
2023/07/24 02:18:37;;;;;;;0.00;0.00;;;;;;;15.49;nan;99092.44;4933350;29;20038;-75
2023/07/24 02:21:02;;;;;;;0.00;0.00;;;;;;;15.48;nan;99095.53;4918772;29;20028;-75
2023/07/24 02:23:27;;;;;;;0.00;0.00;;;;;;;15.45;nan;99091.50;4941693;29;20064;-75
2023/07/24 02:25:53;;;;;;;0.00;0.00;;;;;;;;;;4943178;29;20461;-75
2023/07/24 02:28:18;;;;;;;0.00;0.00;;;;;;;15.44;nan;99084.34;4926441;29;20031;-75
2023/07/24 02:30:43;;;;;;;0.00;0.00;;;;;;;;;;4933386;29;20023;-75
2023/07/24 02:33:09;;;;;;;0.00;0.00;;;;;;;15.40;nan;99094.41;4944593;28;20386;-76
2023/07/24 02:35:41;;;;;;;0.00;0.00;;;;;;;;;;4940440;28;20047;-76
2023/07/24 02:38:06;;;;;;;0.00;0.00;;;;;;;;;;4929899;29;20097;-76
2023/07/24 02:40:32;;;;;;;0.00;0.00;;;;;;;15.39;nan;99026.72;4930103;29;20039;-76
2023/07/24 02:42:57;;;;;;;0.00;0.00;;;;;;;15.36;nan;99077.75;4937602;29;20410;-75
2023/07/24 02:45:23;;;;;;;0.00;0.00;;;;;;;15.35;nan;99084.41;4929421;29;20130;-75
2023/07/24 02:47:48;;;;;;;0.00;0.00;;;;;;;15.32;nan;99082.31;4938917;28;20034;-75
2023/07/24 02:50:13;;;;;;;0.00;0.00;;;;;;;15.31;nan;99090.91;4938783;28;20043;-74
2023/07/24 02:52:39;;;;;;;0.00;0.00;;;;;;;;;;4935601;28;20027;-76
2023/07/24 02:55:04;;;;;;;0.00;0.00;;;;;;;15.28;nan;99091.56;4924562;29;20505;-75
2023/07/24 02:57:30;;;;;;;0.00;0.00;;;;;;;15.26;nan;99091.91;4940789;29;20027;-76
2023/07/24 02:59:55;;;;;;;0.00;0.00;;;;;;;15.23;nan;99067.78;4948496;29;20035;-75
2023/07/24 03:02:20;;;;;;;0.00;0.00;;;;;;;;;;4937168;28;20051;-76
2023/07/24 03:04:48;;;;;;;0.00;0.00;;;;;;;;;;4926278;29;20400;-75
2023/07/24 03:07:13;;;;;;;0.00;0.00;;;;;;;;;;4932204;28;20024;-76
2023/07/24 03:09:39;;;;;;;0.00;0.00;;;;;;;15.21;nan;99027.94;4939447;28;20349;-76
2023/07/24 03:12:04;;;;;;;0.00;0.00;;;;;;;15.22;nan;99068.09;4926988;29;20043;-76
2023/07/24 03:14:30;;;;;;;0.00;0.00;;;;;;;15.22;nan;99087.38;4914841;29;20031;-76
2023/07/24 03:16:55;;;;;;;0.00;0.00;;;;;;;15.19;nan;99073.13;4951219;28;20039;-76
2023/07/24 03:19:20;;;;;;;0.00;0.00;;;;;;;;;;4929663;29;20040;-76
2023/07/24 03:21:46;;;;;;;0.00;0.00;;;;;;;15.21;nan;99074.75;4935602;29;20453;-76
2023/07/24 03:24:11;;;;;;;0.00;0.00;;;;;;;15.22;nan;99081.88;4934424;29;20261;-75
2023/07/24 03:26:37;;;;;;;0.00;0.00;;;;;;;15.26;nan;99066.28;4930207;29;20035;-75
2023/07/24 03:29:02;;;;;;;0.00;0.00;;;;;;;;;;4933689;28;20102;-75
2023/07/24 03:31:28;;;;;;;0.00;0.00;;;;;;;15.19;nan;99073.13;4939718;28;20042;-75
2023/07/24 03:33:53;;;;;;;0.00;0.00;;;;;;;15.23;nan;99076.03;4932201;29;20023;-76
2023/07/24 03:36:18;;;;;;;0.00;0.00;;;;;;;15.21;nan;99074.75;4949597;29;20612;-75
2023/07/24 03:38:44;;;;;;;0.00;0.00;;;;;;;15.22;nan;99081.88;4929576;29;20027;-76
2023/07/24 03:41:09;;;;;;;0.00;0.00;;;;;;;15.21;nan;99080.25;4950771;29;20090;-75
2023/07/24 03:43:35;;;;;;;0.00;0.00;;;;;;;15.14;nan;99059.56;4946034;29;20031;-75
2023/07/24 03:46:00;;;;;;;0.00;0.00;;;;;;;14.58;nan;98971.47;4940414;28;20031;-75
2023/07/24 03:48:25;;;;;;;0.00;0.00;;;;;;;15.18;nan;99082.50;4931160;28;20031;-74
2023/07/24 03:50:58;;;;;;;0.00;0.00;;;;;;;15.14;nan;99083.50;4928984;29;20031;-74
2023/07/24 03:53:23;;;;;;;0.00;0.00;;;;;;;;;;4944318;28;20039;-75
2023/07/24 03:55:49;;;;;;;0.00;0.00;;;;;;;15.14;nan;99092.59;4938747;28;20035;-74
2023/07/24 03:58:14;;;;;;;0.00;0.00;;;;;;;15.12;nan;99096.81;4930068;29;20281;-74
2023/07/24 04:00:40;;;;;;;0.00;0.00;;;;;;;;;;4933216;29;20042;-73
2023/07/24 04:03:05;;;;;;;0.00;0.00;;;;;;;14.04;nan;98911.41;4945099;28;20848;-74
2023/07/24 04:05:30;;;;;;;0.00;0.00;;;;;;;15.10;nan;99047.56;4929841;28;20042;-74
2023/07/24 04:07:56;;;;;;;0.00;0.00;;;;;;;15.07;nan;99078.53;4928643;29;20028;-74
2023/07/24 04:10:21;;;;;;;0.00;0.00;;;;;;;;;;4948439;28;20489;-74
2023/07/24 04:12:46;;;;;;;0.00;0.00;;;;;;;15.10;nan;99094.38;4928085;29;20769;-74
2023/07/24 04:15:12;;;;;;;0.00;0.00;;;;;;;15.10;nan;99108.16;4937002;29;20035;-73
2023/07/24 04:17:39;;;;;;;0.00;0.00;;;;;;;15.11;nan;99109.78;4932778;29;20421;-74
2023/07/24 04:20:05;;;;;;;0.00;0.00;;;;;;;15.13;nan;99113.00;4928059;29;20042;-74
2023/07/24 04:22:31;;;;;;;0.00;0.00;;;;;;;15.17;nan;99113.13;4937726;29;20054;-74
2023/07/24 04:24:56;;;;;;;0.00;0.00;;;;;;;15.17;nan;99111.19;4929015;29;20031;-73
2023/07/24 04:27:21;;;;;;;0.00;0.00;;;;;;;15.21;nan;99107.78;4948564;29;20090;-73
2023/07/24 04:29:47;;;;;;;0.00;0.00;;;;;;;;;;4946886;29;20058;-74
2023/07/24 04:32:12;;;;;;;0.00;0.00;;;;;;;15.33;nan;99099.63;4928672;29;20400;-73
2023/07/24 04:34:39;;;;;;;0.00;0.00;;;;;;;;;;4934197;29;20047;-73
2023/07/24 04:37:04;;;;;;;0.00;0.00;;;;;;;15.33;nan;99113.41;4929607;29;20035;-73
2023/07/24 04:39:29;;;;;;;0.00;0.00;;;;;;;15.36;nan;99107.22;4944379;28;20042;-74
2023/07/24 04:41:55;;;;;;;0.00;0.00;;;;;;;15.38;nan;99107.72;4905127;29;20071;-75
2023/07/24 04:44:20;;;;;;;0.00;0.00;;;;;;;15.39;nan;99122.28;4917050;29;20063;-73
2023/07/24 04:46:46;;;;;;;0.00;0.00;;;;;;;15.40;nan;99121.97;4918868;29;20473;-73
2023/07/24 04:49:11;;;;;;;0.00;0.00;;;;;;;15.38;nan;99107.72;4923946;29;20077;-73
2023/07/24 04:51:36;;;;;;;0.00;0.00;;;;;;;15.19;nan;99062.09;4939536;29;20035;-74
2023/07/24 04:54:02;;;;;;;0.00;0.00;;;;;;;15.41;nan;99118.06;4943340;29;20067;-74
2023/07/24 04:56:30;;;;;;;0.00;0.00;;;;;;;15.45;nan;99112.69;4934018;29;20026;-74
2023/07/24 04:58:55;;;;;;;0.00;0.00;;;;;;;15.44;nan;99122.94;4912966;29;20391;-74
2023/07/24 05:01:21;;;;;;;0.00;0.00;;;;;;;15.44;nan;99114.66;4940591;29;20114;-74
2023/07/24 05:03:46;;;;;;;0.00;0.00;;;;;;;15.48;nan;99125.84;4935633;28;20031;-74
2023/07/24 05:06:11;;;;;;;0.00;0.00;;;;;;;14.71;nan;99002.69;4944679;28;20489;-73
2023/07/24 05:08:37;;;;;;;0.00;0.00;;;;;;;15.53;nan;99126.44;4928456;29;20027;-75
2023/07/24 05:11:02;;;;;;;0.00;0.00;;;;;;;15.56;nan;99136.00;4912169;29;20439;-75
2023/07/24 05:13:28;;;;;;;0.00;0.00;;;;;;;15.56;nan;99124.19;4926366;29;20035;-75
2023/07/24 05:15:53;;;;;;;0.00;0.00;;;;;;;14.06;nan;98906.44;4926427;29;20035;-74
2023/07/24 05:18:19;;;;;;;0.00;0.00;;;;;;;15.54;nan;99119.81;4941058;29;20031;-75
2023/07/24 05:20:46;;;;;;;0.00;0.00;;;;;;;15.58;nan;99138.41;4928588;29;20406;-74
2023/07/24 05:23:11;;;;;;;0.00;0.00;;;;;;;15.68;nan;99121.50;4937112;28;20082;-74
2023/07/24 05:25:37;;;;;;;0.00;0.00;;;;;;;15.73;nan;99134.31;4940943;29;20221;-75
2023/07/24 05:28:02;;;;;;;0.00;0.00;;;;;;;;;;4930547;29;20031;-75
2023/07/24 05:30:28;;;;;;;0.00;0.00;;;;;;;15.79;nan;99133.00;4948669;28;20125;-73
2023/07/24 05:32:53;;;;;;;0.00;0.00;;;;;;;;;;4931724;29;20038;-73
2023/07/24 05:35:19;;;;;;;0.00;0.00;;;;;;;15.81;nan;99120.53;4927950;29;20234;-74
2023/07/24 05:37:44;;;;;;;0.00;0.00;;;;;;;15.88;nan;99126.28;4946976;28;20545;-75
2023/07/24 05:40:10;;;;;;;0.00;0.00;;;;;;;15.93;nan;99121.72;4901678;29;20028;-75
2023/07/24 05:42:41;;;;;;;0.00;0.00;;;;;;;16.01;nan;99134.66;4936451;29;20055;-74
2023/07/24 05:45:07;;;;;;;0.00;0.00;;;;;;;;;;4928539;29;20120;-74
2023/07/24 05:47:32;;;;;;;0.00;0.00;;;;;;;16.02;nan;99144.56;4941736;29;20039;-73
2023/07/24 05:49:58;;;;;;;0.00;0.00;;;;;;;15.98;nan;99135.34;4945227;29;20051;-73
2023/07/24 05:52:23;;;;;;;0.00;0.00;;;;;;;16.05;nan;99121.84;4941178;28;20035;-73
2023/07/24 05:54:48;;;;;;;0.00;0.00;;;;;;;16.14;nan;99141.09;4932078;29;20462;-74
2023/07/24 05:57:14;;;;;;;0.00;0.00;;;;;;;16.26;nan;99135.63;4913137;29;20105;-73
2023/07/24 05:59:39;;;;;;;0.00;0.00;;;;;;;16.43;nan;99144.91;4933113;29;20441;-73
2023/07/24 06:02:05;;;;;;;0.00;0.00;;;;;;;16.48;nan;99097.81;4908452;29;20042;-73
2023/07/24 06:04:31;;;;;;;0.00;0.00;;;;;;;16.57;nan;99146.28;4930190;29;20081;-75
2023/07/24 06:06:56;;;;;;;0.00;0.00;;;;;;;;;;4943407;28;20039;-73
2023/07/24 06:09:22;;;;;;;0.00;0.00;;;;;;;16.69;nan;99147.47;4930669;29;20034;-74
2023/07/24 06:11:47;;;;;;;0.00;0.00;;;;;;;16.73;nan;99148.41;4933285;29;20309;-74
2023/07/24 06:14:12;;;;;;;0.00;0.00;;;;;;;16.78;nan;99153.72;4933409;28;20086;-74
2023/07/24 06:16:38;;;;;;;0.00;0.00;;;;;;;16.78;nan;99137.16;4930069;23;20059;-75
2023/07/24 06:19:03;;;;;;;0.00;0.00;;;;;;;;;;4899855;29;20442;-77
2023/07/24 06:21:29;;;;;;;0.00;0.00;;;;;;;16.90;nan;99137.22;4892678;29;20048;-76
2023/07/24 06:23:54;;;;;;;0.00;0.00;;;;;;;16.90;nan;99148.28;4898421;29;20040;-76
2023/07/24 06:26:19;;;;;;;0.00;0.00;;;;;;;16.88;nan;99150.56;4923088;29;20039;-76
2023/07/24 06:28:45;;;;;;;0.00;0.00;;;;;;;16.90;nan;99153.78;4904183;29;20024;-74
2023/07/24 06:31:10;;;;;;;0.00;0.00;;;;;;;17.06;nan;99144.88;4891944;29;20087;-73
2023/07/24 06:33:36;;;;;;;0.00;0.00;;;;;;;17.23;nan;99143.88;4909628;29;20554;-72
2023/07/24 06:36:01;;;;;;;0.00;0.00;;;;;;;;;;4888886;29;20040;-73
2023/07/24 06:38:26;;;;;;;0.00;0.00;;;;;;;;;;4886954;29;20036;-73
2023/07/24 06:40:54;;;;;;;0.00;0.00;;;;;;;17.87;nan;99159.06;4905859;29;20026;-73
2023/07/24 06:43:19;;;;;;;0.00;0.00;;;;;;;;;;4909512;29;20039;-73
2023/07/24 06:45:45;;;;;;;0.00;0.00;;;;;;;18.38;nan;99146.78;4929325;29;20444;-73
2023/07/24 06:48:10;;;;;;;0.00;0.00;;;;;;;;;;4905600;29;20044;-73
2023/07/24 06:50:35;;;;;;;0.00;0.00;;;;;;;18.96;nan;99177.75;4891083;29;20367;-73
2023/07/24 06:53:01;;;;;;;0.00;0.00;;;;;;;19.06;nan;99175.66;4912163;29;20028;-73
2023/07/24 06:55:26;;;;;;;0.00;0.00;;;;;;;19.07;nan;99157.88;4891079;29;20527;-74
2023/07/24 06:57:51;;;;;;;0.00;0.00;;;;;;;18.96;nan;99171.44;4907515;29;20039;-74
2023/07/24 07:00:19;;;;;;;0.00;0.00;;;;;;;;;;4869218;29;20135;-72
2023/07/24 07:02:44;;;;;;;0.00;0.00;;;;;;;18.51;nan;99092.22;4919396;29;20035;-72
2023/07/24 07:05:10;;;;;;;0.00;0.00;;;;;;;;;;4911189;29;20036;-72
2023/07/24 07:07:35;;;;;;;0.00;0.00;;;;;;;;;;4888577;29;20055;-74
2023/07/24 07:10:00;;;;;;;0.00;0.00;;;;;;;;;;4910044;29;20044;-73
2023/07/24 07:12:26;;;;;;;0.00;0.00;;;;;;;19.56;nan;99163.13;4896599;29;20036;-73
2023/07/24 07:14:51;;;;;;;0.00;0.00;;;;;;;19.41;nan;99172.25;4903798;29;20044;-73
2023/07/24 07:17:16;;;;;;;0.05;0.05;;;;;;;;;;4901994;29;20044;-74
2023/07/24 07:19:42;;;;;;;0.00;0.00;;;;;;;19.12;nan;99180.56;4903335;29;20048;-74
2023/07/24 07:22:07;;;;;;;0.00;0.00;;;;;;;19.01;nan;99174.75;4889533;29;20028;-77
2023/07/24 07:24:33;;;;;;;0.00;0.00;;;;;;;;;;4905850;29;20479;-75
2023/07/24 07:27:00;;;;;;;0.00;0.00;;;;;;;18.08;nan;99040.00;4926328;29;20032;-75
2023/07/24 07:29:26;;;;;;;0.00;0.00;;;;;;;19.12;nan;99179.78;4890934;29;20615;-74
2023/07/24 07:31:51;;;;;;;0.00;0.00;;;;;;;19.26;nan;99163.56;4905229;29;20036;-75
2023/07/24 07:34:16;;;;;;;0.00;0.00;;;;;;;;;;4900072;29;20371;-74
2023/07/24 07:36:42;;;;;;;0.00;0.00;;;;;;;19.60;nan;99172.34;4919499;29;20051;-75
2023/07/24 07:39:07;;;;;;;0.00;0.00;;;;;;;19.76;nan;99164.03;4909836;29;20168;-76
2023/07/24 07:41:33;;;;;;;0.00;0.00;;;;;;;19.82;nan;99181.22;4909683;29;20039;-75
2023/07/24 07:43:58;;;;;;;0.00;0.00;;;;;;;19.92;nan;99177.09;4908500;29;20554;-77
2023/07/24 07:46:23;;;;;;;0.00;0.00;;;;;;;20.08;nan;99168.75;4900897;29;20080;-77
2023/07/24 07:48:49;;;;;;;0.00;0.00;;;;;;;20.28;nan;99189.84;4891799;29;20044;-76
2023/07/24 07:51:15;;;;;;;0.00;0.00;;;;;;;20.35;nan;99197.53;4887534;29;20115;-77
2023/07/24 07:53:40;;;;;;;0.00;0.00;;;;;;;;;;4900894;29;20059;-75
2023/07/24 07:56:06;;;;;;;0.00;0.00;;;;;;;20.53;nan;99200.69;4919161;29;20157;-77
2023/07/24 07:58:32;;;;;;;0.00;0.00;;;;;;;;;;4903601;29;20032;-76
2023/07/24 08:01:04;;;;;;;0.00;0.00;;;;;;;20.72;nan;99192.44;4903864;29;20032;-74
2023/07/24 08:03:30;;;;;;;0.00;0.00;;;;;;;21.01;nan;99204.13;4912197;29;20028;-73
2023/07/24 08:05:59;;;;;;;0.00;0.00;;;;;;;;;;4898418;29;20032;-75
2023/07/24 08:08:25;;;;;;;0.00;0.00;;;;;;;21.18;nan;99190.94;4915553;29;20071;-74
2023/07/24 08:10:50;;;;;;;0.00;0.00;;;;;;;21.47;nan;99197.84;4907095;29;20442;-75
2023/07/24 08:13:18;;;;;;;0.00;0.00;;;;;;;21.99;nan;99215.06;4907420;29;20032;-72
2023/07/24 08:15:43;;;;;;;0.00;0.00;;;;;;;22.09;nan;99194.97;4900129;29;20230;-74
2023/07/24 08:18:09;;;;;;;0.00;0.00;;;;;;;21.77;nan;99203.56;4907931;29;20143;-73
2023/07/24 08:20:38;;;;;;;0.00;0.00;;;;;;;21.40;nan;99192.94;4895874;29;20115;-73
2023/07/24 08:23:07;;;;;;;0.00;0.00;;;;;;;;;;4919284;29;20028;-72
2023/07/24 08:25:32;;;;;;;0.00;0.00;;;;;;;21.21;nan;99201.34;4901184;29;20020;-73
2023/07/24 08:27:57;;;;;;;0.00;0.00;;;;;;;21.12;nan;99200.75;4891861;29;20605;-73
2023/07/24 08:30:23;;;;;;;0.00;0.00;;;;;;;20.97;nan;99136.56;4893073;29;20041;-74
2023/07/24 08:32:51;;;;;;;0.00;0.00;;;;;;;21.75;nan;99217.03;4914596;29;20059;-75
2023/07/24 08:35:17;;;;;;;0.00;0.00;;;;;;;22.22;nan;99219.78;4894908;29;20067;-75
2023/07/24 08:37:44;;;;;;;0.00;0.00;;;;;;;22.76;nan;99226.94;4914542;29;20068;-74
2023/07/24 08:40:10;;;;;;;0.00;0.00;;;;;;;23.17;nan;99213.19;4887661;29;20694;-74
2023/07/24 08:42:42;;;;;;;0.00;0.00;;;;;;;23.21;nan;99229.16;4911778;29;20039;-74
2023/07/24 08:45:17;;;;;;;0.00;0.00;;;;;;;23.18;nan;99220.34;4914431;29;20064;-76
2023/07/24 08:47:44;;;;;;;0.00;0.00;;;;;;;22.99;nan;99228.84;4905929;29;20028;-74
2023/07/24 08:50:14;;;;;;;0.00;0.00;;;;;;;;;;4900640;29;20038;-74
2023/07/24 08:52:42;;;;;;;0.00;0.00;;;;;;;22.98;nan;99224.44;4900889;29;20071;-73
2023/07/24 08:55:08;;;;;;;0.00;0.00;;;;;;;23.03;nan;99224.13;4912588;29;20428;-73
2023/07/24 08:57:51;;;;;;;0.00;0.00;;;;;;;23.35;nan;99229.31;4899875;29;20028;-74
2023/07/24 09:00:16;;;;;;;0.00;0.00;;;;;;;20.27;nan;98688.66;4914406;29;20115;-74
2023/07/24 09:02:42;;;;;;;0.00;0.00;;;;;;;24.25;nan;99229.34;4893842;29;20539;-74
2023/07/24 09:05:08;;;;;;;0.00;0.00;;;;;;;24.64;nan;99235.22;4904859;29;20038;-74
2023/07/24 09:07:33;;;;;;;0.00;0.00;;;;;;;24.94;nan;99230.56;4892702;29;20052;-73
2023/07/24 09:10:01;;;;;;;0.00;0.00;;;;;;;25.13;nan;99241.44;4918544;29;20704;-74
2023/07/24 09:12:26;;;;;;;0.00;0.00;;;;;;;24.38;nan;99174.75;4894324;29;20092;-73
2023/07/24 09:15:05;;;;;;;0.00;0.00;;;;;;;23.79;nan;99248.09;4893674;29;20040;-73
2023/07/24 09:17:30;;;;;;;0.00;0.00;;;;;;;22.99;nan;99262.31;4904961;29;20109;-73
2023/07/24 09:19:57;;;;;;;0.00;0.00;;;;;;;;;;4887656;29;20024;-73
2023/07/24 09:22:23;;;;;;;0.00;0.00;;;;;;;;;;4905875;29;20074;-71
2023/07/24 09:24:53;;;;;;;0.00;0.00;;;;;;;21.66;nan;99261.00;4902236;29;20071;-74
2023/07/24 09:27:19;;;;;;;0.00;0.00;;;;;;;;;;4897393;29;20043;-74
2023/07/24 09:29:48;;;;;;;0.00;0.00;;;;;;;21.23;nan;99249.00;4900769;29;20493;-74
2023/07/24 09:32:25;;;;;;;0.00;0.00;;;;;;;21.34;nan;99269.50;4918285;29;20040;-76
2023/07/24 09:34:51;;;;;;;0.00;0.00;;;;;;;21.36;nan;99263.56;4902413;29;20498;-74
2023/07/24 09:37:30;;;;;;;0.00;0.00;;;;;;;21.58;nan;99267.59;4914232;29;20050;-73
2023/07/24 09:39:55;;;;;;;0.00;0.00;;;;;;;21.86;nan;99297.13;4910222;29;20024;-73
2023/07/24 09:42:35;;;;;;;0.00;0.00;;;;;;;21.99;nan;99308.88;4889573;29;20115;-73
2023/07/24 09:45:01;;;;;;;0.00;0.00;;;;;;;;;;4908517;29;20032;-74
2023/07/24 09:47:26;;;;;;;0.00;0.00;;;;;;;22.28;nan;99301.81;4922906;29;20541;-73
2023/07/24 09:49:55;;;;;;;0.00;0.00;;;;;;;22.51;nan;99303.81;4910661;29;20172;-73
2023/07/24 09:52:22;;;;;;;0.00;0.00;;;;;;;22.65;nan;99301.25;4902841;29;20036;-73
2023/07/24 09:54:53;;;;;;;0.00;0.00;;;;;;;;;;4907629;29;20024;-72
2023/07/24 09:57:19;;;;;;;0.00;0.00;;;;;;;22.67;nan;99318.38;4908196;29;20032;-73
2023/07/24 09:59:46;;;;;;;0.00;0.00;;;;;;;22.64;nan;99319.94;4903159;29;20055;-73
2023/07/24 10:02:15;;;;;;;0.00;0.00;;;;;;;22.67;nan;99315.59;4908103;29;21456;-73
2023/07/24 10:04:41;;;;;;;0.00;0.00;;;;;;;22.58;nan;99309.50;4912959;29;20036;-73
2023/07/24 10:07:07;;;;;;;0.00;0.00;;;;;;;22.71;nan;99308.09;4903749;29;20080;-74
2023/07/24 10:09:35;;;;;;;0.00;0.00;;;;;;;;;;4913283;29;20028;-74
2023/07/24 10:12:02;;;;;;;0.00;0.00;;;;;;;23.16;nan;99313.94;4910355;29;20439;-73
2023/07/24 10:14:29;;;;;;;0.00;0.00;;;;;;;23.35;nan;99324.94;4901720;29;20063;-73
2023/07/24 10:16:56;;;;;;;0.00;0.00;;;;;;;24.02;nan;99334.47;4915667;28;20073;-73
2023/07/24 10:19:21;;;;;;;0.00;0.00;;;;;;;24.50;nan;99324.50;4896126;29;20039;-72
2023/07/24 10:21:48;;;;;;;0.00;0.00;;;;;;;24.49;nan;99334.88;4891625;29;20382;-74
2023/07/24 10:24:15;;;;;;;0.00;0.00;;;;;;;24.11;nan;99336.13;4907462;29;20032;-73
2023/07/24 10:26:40;;;;;;;0.00;0.00;;;;;;;23.83;nan;99335.44;4907074;29;20036;-72
2023/07/24 10:29:06;;;;;;;0.00;0.00;;;;;;;23.48;nan;99336.66;4910862;29;20339;-72
2023/07/24 10:31:32;;;;;;;0.00;0.00;;;;;;;23.20;nan;99339.84;4901475;29;20095;-72
2023/07/24 10:34:07;;;;;;;0.00;0.00;;;;;;;23.16;nan;99345.41;4909085;29;20070;-73
2023/07/24 10:36:38;;;;;;;0.00;0.00;;;;;;;23.26;nan;99349.53;4905997;29;20039;-73
2023/07/24 10:39:18;;;;;;;0.00;0.00;;;;;;;23.75;nan;99352.50;4908671;29;20028;-73
2023/07/24 10:41:45;;;;;;;0.00;0.00;;;;;;;23.84;nan;99348.19;4904894;29;20083;-73
2023/07/24 10:44:10;;;;;;;0.00;0.00;;;;;;;23.53;nan;99358.63;4902390;29;20123;-73
2023/07/24 10:46:41;;;;;;;0.00;0.00;;;;;;;23.49;nan;99370.91;4899187;29;20111;-73
2023/07/24 10:49:07;;;;;;;0.00;0.00;;;;;;;23.53;nan;99377.34;4908213;29;20032;-73
2023/07/24 10:51:34;;;;;;;0.00;0.00;;;;;;;23.43;nan;99366.88;4907725;29;20032;-72
2023/07/24 10:54:02;;;;;;;0.00;0.00;;;;;;;22.99;nan;99365.44;4903524;29;20039;-73
2023/07/24 10:56:29;;;;;;;0.00;0.00;;;;;;;22.84;nan;99372.78;4909176;29;20036;-73
2023/07/24 10:58:54;;;;;;;0.00;0.00;;;;;;;;;;4903434;29;20119;-73
2023/07/24 11:01:19;;;;;;;0.00;0.00;;;;;;;23.38;nan;99390.31;4920619;29;20119;-73
2023/07/24 11:03:46;;;;;;;0.00;0.00;;;;;;;23.87;nan;99382.97;4904651;29;20065;-73
2023/07/24 11:06:15;;;;;;;0.00;0.00;;;;;;;24.13;nan;99396.00;4908105;29;20055;-73
2023/07/24 11:08:41;;;;;;;0.00;0.00;;;;;;;;;;4907429;29;20087;-74
2023/07/24 11:11:08;;;;;;;0.00;0.00;;;;;;;23.34;nan;99397.81;4903092;29;20032;-73
2023/07/24 11:13:34;;;;;;;0.00;0.00;;;;;;;23.02;nan;99400.94;4910595;29;20032;-72
2023/07/24 11:16:05;;;;;;;0.00;0.00;;;;;;;23.06;nan;99401.78;4904175;29;20091;-73
2023/07/24 11:18:30;;;;;;;0.00;0.00;;;;;;;23.63;nan;99406.59;4908497;29;20063;-72
2023/07/24 11:20:56;;;;;;;0.00;0.00;;;;;;;23.98;nan;99406.22;4913195;29;20040;-73
2023/07/24 11:23:23;;;;;;;0.00;0.00;;;;;;;24.02;nan;99412.66;4904334;29;20076;-75
2023/07/24 11:25:53;;;;;;;0.00;0.00;;;;;;;24.20;nan;99345.00;4925175;29;20025;-73
2023/07/24 11:28:19;;;;;;;0.00;0.00;;;;;;;24.15;nan;99376.91;4919213;29;20070;-73
2023/07/24 11:30:44;;;;;;;0.00;0.00;;;;;;;24.15;nan;99421.56;4901986;29;20479;-72
2023/07/24 11:33:13;;;;;;;0.00;0.00;;;;;;;23.83;nan;99430.34;4893452;29;20051;-71
2023/07/24 11:35:40;;;;;;;0.00;0.00;;;;;;;23.22;nan;99414.78;4900375;29;20044;-73
2023/07/24 11:38:13;;;;;;;0.00;0.00;;;;;;;22.76;nan;99421.22;4899049;29;20039;-73
2023/07/24 11:40:43;;;;;;;0.00;0.00;;;;;;;22.54;nan;99425.63;4901177;29;20047;-75
2023/07/24 11:43:20;;;;;;;0.00;0.00;;;;;;;22.56;nan;99421.31;4904808;29;20032;-73
2023/07/24 11:45:48;;;;;;;0.00;0.00;;;;;;;22.40;nan;99438.13;4899726;29;20558;-73
2023/07/24 11:48:14;;;;;;;0.00;0.00;;;;;;;;;;4904606;29;20036;-73
2023/07/24 11:50:52;;;;;;;0.00;0.00;;;;;;;22.08;nan;99431.94;4903600;29;20489;-73
2023/07/24 11:53:30;;;;;;;0.00;0.00;;;;;;;22.03;nan;99429.44;4903376;29;20043;-75
2023/07/24 11:55:57;;;;;;;0.00;0.00;;;;;;;22.26;nan;99421.13;4904486;29;20388;-72
2023/07/24 11:58:26;;;;;;;0.00;0.00;;;;;;;22.37;nan;99438.06;4899158;29;20050;-71
2023/07/24 12:00:52;;;;;;;0.00;0.00;;;;;;;20.42;nan;99127.50;4900747;29;20107;-71
2023/07/24 12:03:24;;;;;;;0.00;0.00;;;;;;;22.72;nan;99431.50;4900618;29;20115;-73
2023/07/24 12:05:50;;;;;;;0.00;0.00;;;;;;;23.03;nan;99433.22;4894222;29;20058;-73
2023/07/24 12:08:18;;;;;;;0.00;0.00;;;;;;;23.31;nan;99429.25;4897586;29;20390;-73
2023/07/24 12:10:44;;;;;;;0.00;0.00;;;;;;;23.60;nan;99429.66;4913887;29;20039;-73
2023/07/24 12:13:09;;;;;;;0.00;0.00;;;;;;;23.58;nan;99406.91;4895148;29;20035;-72